createdAt,value
2022-11-12T00:03:22.171Z,100219.05
2022-11-12T00:08:42.850Z,100236.29
2022-11-12T00:14:07.909Z,100238.23
2022-11-12T00:19:28.557Z,100237.39
2022-11-12T00:24:49.653Z,100240.86
2022-11-12T00:30:11.189Z,100243.14
2022-11-12T00:35:33.046Z,100240.15
2022-11-12T00:40:53.448Z,100243.66
2022-11-12T00:46:14.431Z,100244.82
2022-11-12T00:51:36.067Z,100240.05
2022-11-12T00:56:57.138Z,100238.95
2022-11-12T01:02:17.552Z,100243.50
2022-11-12T01:07:38.135Z,100246.55
2022-11-12T01:12:58.544Z,100248.96
2022-11-12T01:18:19.040Z,100242.38
2022-11-12T01:23:41.603Z,100239.50
2022-11-12T01:29:02.065Z,100244.93
2022-11-12T01:34:22.793Z,100246.30
2022-11-12T01:39:43.399Z,100246.36
2022-11-12T01:45:15.990Z,100246.73
2022-11-12T01:50:38.970Z,100242.35
2022-11-12T01:56:02.671Z,100238.75
2022-11-12T02:01:23.456Z,100239.47
2022-11-12T02:06:45.858Z,100240.17
2022-11-12T02:12:06.862Z,100243.01
2022-11-12T02:17:27.686Z,100235.62
2022-11-12T02:22:48.528Z,100237.05
2022-11-12T02:28:08.921Z,100234.69
2022-11-12T02:33:29.641Z,100237.47
2022-11-12T02:38:50.772Z,100242.00
2022-11-12T02:44:11.589Z,100243.59
2022-11-12T02:49:32.104Z,100240.04
2022-11-12T02:54:53.125Z,100250.92
2022-11-12T03:00:14.564Z,100255.23
2022-11-12T03:05:36.187Z,100248.23
2022-11-12T03:10:56.926Z,100245.73
2022-11-12T03:16:17.180Z,100242.30
2022-11-12T03:21:37.209Z,100251.27
2022-11-12T03:26:58.059Z,100257.30
2022-11-12T03:32:18.878Z,100255.27
2022-11-12T03:37:39.803Z,100250.94
2022-11-12T03:43:00.520Z,100243.21
2022-11-12T03:48:21.245Z,100242.01
2022-11-12T03:53:42.429Z,100233.59
2022-11-12T03:59:03.244Z,100232.08
2022-11-12T04:04:23.703Z,100226.77
2022-11-12T04:09:44.528Z,100232.46
2022-11-12T04:15:05.862Z,100232.10
2022-11-12T04:20:45.005Z,100228.90
2022-11-12T04:26:23.958Z,100225.49
2022-11-12T04:31:44.718Z,100225.33
2022-11-12T04:37:06.422Z,100221.39
2022-11-12T04:42:45.878Z,100217.46
2022-11-12T04:48:06.349Z,100217.82
2022-11-12T04:53:27.728Z,100213.02
2022-11-12T04:58:48.759Z,100213.38
2022-11-12T05:04:09.486Z,100218.70
2022-11-12T05:09:30.393Z,100218.69
2022-11-12T05:14:51.010Z,100220.08
2022-11-12T05:20:13.405Z,100220.44
2022-11-12T05:25:35.440Z,100215.64
2022-11-12T05:30:56.136Z,100220.44
2022-11-12T05:36:17.062Z,100217.18
2022-11-12T05:42:05.856Z,100225.76
2022-11-12T05:47:18.642Z,100234.85
2022-11-12T05:52:38.985Z,100238.63
2022-11-12T05:58:04.910Z,100246.86
2022-11-12T06:03:30.030Z,100242.58
2022-11-12T06:08:50.560Z,100250.13
2022-11-12T06:14:10.878Z,100259.21
2022-11-12T06:19:31.386Z,100260.07
2022-11-12T06:24:52.001Z,100263.16
2022-11-12T06:30:13.229Z,100270.54
2022-11-12T06:35:33.949Z,100272.59
2022-11-12T06:40:54.873Z,100275.32
2022-11-12T06:46:17.133Z,100276.66
2022-11-12T06:51:39.818Z,100281.73
2022-11-12T06:57:01.240Z,100289.57
2022-11-12T07:02:21.948Z,100284.98
2022-11-12T07:07:42.975Z,100285.31
2022-11-12T07:13:03.889Z,100292.00
2022-11-12T07:18:25.105Z,100292.48
2022-11-12T07:23:47.379Z,100290.15
2022-11-12T07:29:07.726Z,100290.96
2022-11-12T07:34:28.067Z,100287.45
2022-11-12T07:39:48.626Z,100286.30
2022-11-12T07:45:10.062Z,100287.38
2022-11-12T07:50:30.671Z,100288.86
2022-11-12T07:56:13.208Z,100284.48
2022-11-12T08:01:37.619Z,100289.75
2022-11-12T08:06:58.520Z,100289.60
2022-11-12T08:12:19.354Z,100293.00
2022-11-12T08:17:40.227Z,100297.83
2022-11-12T08:23:01.011Z,100302.90
2022-11-12T08:28:21.423Z,100303.96
2022-11-12T08:33:43.152Z,100302.27
2022-11-12T08:39:04.076Z,100303.14
2022-11-12T08:44:24.698Z,100304.56
2022-11-12T08:49:48.034Z,100312.09
2022-11-12T08:55:09.411Z,100312.38
2022-11-12T09:00:32.756Z,100310.73
2022-11-12T09:05:54.331Z,100315.48
2022-11-12T09:11:14.949Z,100318.65
2022-11-12T09:16:35.771Z,100319.36
2022-11-12T09:21:56.242Z,100317.21
2022-11-12T09:27:16.893Z,100314.05
2022-11-12T09:32:37.823Z,100312.48
2022-11-12T09:37:59.529Z,100313.40
2022-11-12T09:43:27.654Z,100316.15
2022-11-12T09:48:55.680Z,100309.52
2022-11-12T09:54:26.810Z,100309.16
2022-11-12T09:59:47.220Z,100310.19
2022-11-12T10:05:34.670Z,100302.52
2022-11-12T10:11:24.368Z,100296.00
2022-11-12T10:16:53.994Z,100291.19
2022-11-12T10:22:39.496Z,100298.05
2022-11-12T10:28:06.084Z,100295.00
2022-11-12T10:33:31.400Z,100292.67
2022-11-12T10:38:54.463Z,100289.50
2022-11-12T10:44:15.206Z,100285.55
2022-11-12T10:49:35.991Z,100289.38
2022-11-12T10:55:07.444Z,100293.29
2022-11-12T11:00:27.975Z,100287.09
2022-11-12T11:05:54.116Z,100290.33
2022-11-12T11:11:28.641Z,100286.09
2022-11-12T11:17:01.984Z,100282.36
2022-11-12T11:22:45.944Z,100282.59
2022-11-12T11:28:45.372Z,100281.63
2022-11-12T11:34:20.425Z,100281.63
2022-11-12T11:40:11.664Z,100280.54
2022-11-12T11:46:07.959Z,100278.77
2022-11-12T11:51:49.927Z,100275.07
2022-11-12T11:57:23.345Z,100270.89
2022-11-12T12:02:52.511Z,100274.52
2022-11-12T12:08:25.921Z,100274.45
2022-11-12T12:13:46.494Z,100265.07
2022-11-12T12:19:38.139Z,100268.00
2022-11-12T12:25:19.654Z,100264.13
2022-11-12T12:30:43.128Z,100256.77
2022-11-12T12:36:25.045Z,100257.17
2022-11-12T12:41:57.350Z,100257.39
2022-11-12T12:47:19.492Z,100250.17
2022-11-12T12:52:59.354Z,100247.99
2022-11-12T12:58:27.926Z,100239.92
2022-11-12T13:03:58.820Z,100231.94
2022-11-12T13:09:19.413Z,100230.20
2022-11-12T13:14:40.459Z,100224.14
2022-11-12T13:20:03.846Z,100220.89
2022-11-12T13:25:27.644Z,100221.59
2022-11-12T13:30:47.941Z,100223.16
2022-11-12T13:36:26.871Z,100223.77
2022-11-12T13:42:34.919Z,100222.48
2022-11-12T13:47:58.425Z,100222.83
2022-11-12T13:53:27.766Z,100223.14
2022-11-12T13:59:15.784Z,100218.61
2022-11-12T14:05:18.503Z,100218.73
2022-11-12T14:10:54.475Z,100211.66
2022-11-12T14:17:01.467Z,100209.52
2022-11-12T14:22:22.490Z,100207.20
2022-11-12T14:27:43.619Z,100203.05
2022-11-12T14:33:11.307Z,100198.13
2022-11-12T14:38:38.405Z,100198.83
2022-11-12T14:44:12.581Z,100202.78
2022-11-12T14:49:54.624Z,100198.93
2022-11-12T14:55:23.230Z,100198.18
2022-11-12T15:00:46.351Z,100193.46
2022-11-12T15:06:06.922Z,100197.09
2022-11-12T15:11:47.711Z,100196.90
2022-11-12T15:17:33.926Z,100196.95
2022-11-12T15:22:55.056Z,100195.36
2022-11-12T15:28:23.659Z,100191.12
2022-11-12T15:33:44.376Z,100194.94
2022-11-12T15:39:13.298Z,100191.27
2022-11-12T15:44:37.269Z,100194.06
2022-11-12T15:49:59.276Z,100196.97
2022-11-12T15:55:19.955Z,100200.40
2022-11-12T16:00:40.652Z,100205.73
2022-11-12T16:06:07.208Z,100213.42
2022-11-12T16:11:38.290Z,100217.67
2022-11-12T16:16:59.098Z,100219.61
2022-11-12T16:22:19.725Z,100223.82
2022-11-12T16:27:40.961Z,100222.45
2022-11-12T16:33:02.189Z,100224.58
2022-11-12T16:38:23.468Z,100220.63
2022-11-12T16:43:44.243Z,100219.67
2022-11-12T16:49:04.657Z,100216.59
2022-11-12T16:54:25.166Z,100216.77
2022-11-12T16:59:45.783Z,100227.65
2022-11-12T17:05:15.615Z,100230.11
2022-11-12T17:10:36.543Z,100230.55
2022-11-12T17:15:58.223Z,100234.70
2022-11-12T17:21:19.723Z,100234.65
2022-11-12T17:26:40.742Z,100229.77
2022-11-12T17:32:01.672Z,100230.23
2022-11-12T17:37:22.287Z,100227.92
2022-11-12T17:42:43.001Z,100226.10
2022-11-12T17:48:04.064Z,100220.68
2022-11-12T17:53:24.778Z,100225.20
2022-11-12T17:58:46.184Z,100226.09
2022-11-12T18:04:06.806Z,100226.44
2022-11-12T18:09:27.723Z,100226.63
2022-11-12T18:14:48.555Z,100230.73
2022-11-12T18:20:09.998Z,100229.16
2022-11-12T18:25:30.604Z,100225.35
2022-11-12T18:30:51.525Z,100223.25
2022-11-12T18:36:15.242Z,100228.17
2022-11-12T18:41:35.732Z,100231.22
2022-11-12T18:46:56.346Z,100236.52
2022-11-12T18:52:17.375Z,100245.27
2022-11-12T18:57:37.987Z,100249.21
2022-11-12T19:02:58.296Z,100253.48
2022-11-12T19:08:19.429Z,100255.15
2022-11-12T19:13:40.981Z,100256.48
2022-11-12T19:19:02.196Z,100253.88
2022-11-12T19:24:22.914Z,100252.98
2022-11-12T19:29:43.686Z,100259.17
2022-11-12T19:35:04.863Z,100269.92
2022-11-12T19:40:25.685Z,100269.31
2022-11-12T19:45:46.033Z,100278.81
2022-11-12T19:51:08.553Z,100276.42
2022-11-12T19:56:30.634Z,100283.09
2022-11-12T20:01:51.326Z,100284.05
2022-11-12T20:07:11.967Z,100280.36
2022-11-12T20:12:33.220Z,100284.60
2022-11-12T20:18:04.440Z,100288.09
2022-11-12T20:23:26.313Z,100283.83
2022-11-12T20:28:47.621Z,100285.57
2022-11-12T20:34:08.941Z,100291.16
2022-11-12T20:39:29.675Z,100291.84
2022-11-12T20:44:50.187Z,100294.42
2022-11-12T20:50:11.114Z,100294.24
2022-11-12T20:55:32.849Z,100297.31
2022-11-12T21:00:53.510Z,100296.74
2022-11-12T21:06:26.139Z,100299.66
2022-11-12T21:11:46.787Z,100291.69
2022-11-12T21:17:07.873Z,100301.32
2022-11-12T21:22:28.733Z,100298.83
2022-11-12T21:27:49.245Z,100299.77
2022-11-12T21:33:09.769Z,100306.09
2022-11-12T21:38:30.761Z,100298.54
2022-11-12T21:43:51.635Z,100299.02
2022-11-12T21:49:12.022Z,100294.96
2022-11-12T21:54:32.842Z,100292.45
2022-11-12T21:59:53.462Z,100289.67
2022-11-12T22:05:24.419Z,100289.14
2022-11-12T22:10:45.165Z,100290.52
2022-11-12T22:16:13.537Z,100282.70
2022-11-12T22:21:39.451Z,100279.54
2022-11-12T22:27:05.193Z,100274.03
2022-11-12T22:32:28.455Z,100277.58
2022-11-12T22:37:48.932Z,100271.88
2022-11-12T22:43:09.216Z,100272.89
2022-11-12T22:48:30.196Z,100272.36
2022-11-12T22:53:58.784Z,100275.42
2022-11-12T22:59:18.949Z,100278.98
2022-11-12T23:04:39.569Z,100273.95
2022-11-12T23:09:59.877Z,100267.77
2022-11-12T23:15:20.481Z,100259.85
2022-11-12T23:20:40.802Z,100255.53
2022-11-12T23:26:14.728Z,100258.80
2022-11-12T23:31:35.326Z,100256.72
2022-11-12T23:36:55.863Z,100260.88
2022-11-12T23:42:16.275Z,100259.27
2022-11-12T23:47:36.994Z,100259.17
2022-11-12T23:52:57.814Z,100259.95
2022-11-12T23:58:18.745Z,100258.23
